Time;durP1;ratioP1;P1;durP2;ratioP2;P2;SDS_P1;SDS_P2;PMS_P1;PMS_P2;Temp;Humidity;BMP_temperature;BMP_pressure;BME280_temperature;BME280_humidity;BME280_pressure;Samples;Min_cycle;Max_cycle;Signal;HPM_P1;HPM_P2
2022/12/31 00:01:09;;;;;;;2.42;1.40;;;;;;;12.46;100.00;100215.44;5001586;28;20043;-72
2022/12/31 00:03:37;;;;;;;2.88;1.77;;;;;;;12.48;100.00;100212.72;5003541;28;20092;-72
2022/12/31 00:06:22;;;;;;;2.22;1.60;;;;;;;12.50;100.00;100216.16;5008914;28;20057;-74
2022/12/31 00:08:50;;;;;;;;;;;;;;;12.47;100.00;100218.94;5005538;28;20034;-72
2022/12/31 00:11:19;;;;;;;4.95;2.95;;;;;;;12.47;100.00;100217.16;5006978;28;20462;-73
2022/12/31 00:13:47;;;;;;;7.70;3.45;;;;;;;12.49;100.00;100217.94;5007669;28;20055;-72
2022/12/31 00:16:21;;;;;;;3.67;2.55;;;;;;;12.50;100.00;100210.88;5010083;28;20610;-72
2022/12/31 00:18:51;;;;;;;4.40;1.75;;;;;;;12.51;100.00;100208.16;5006258;28;20093;-73
2022/12/31 00:21:19;;;;;;;2.65;1.90;;;;;;;12.52;100.00;100209.00;4999507;28;20475;-74
2022/12/31 00:23:48;;;;;;;3.05;1.70;;;;;;;12.53;100.00;100203.63;5004664;28;20054;-75
2022/12/31 00:26:23;;;;;;;1.75;1.40;;;;;;;12.55;100.00;100207.06;5002463;28;20503;-74
2022/12/31 00:28:54;;;;;;;1.90;1.33;;;;;;;12.57;100.00;100213.16;5008254;28;20043;-73
2022/12/31 00:31:28;;;;;;;1.83;1.23;;;;;;;12.60;100.00;100209.50;5002734;28;20043;-72
2022/12/31 00:33:57;;;;;;;2.97;1.63;;;;;;;12.62;100.00;100212.91;5003553;28;20039;-72
2022/12/31 00:36:42;;;;;;;2.05;1.40;;;;;;;12.64;100.00;100204.91;5009943;28;20043;-71
2022/12/31 00:39:09;;;;;;;2.22;1.27;;;;;;;12.63;100.00;100204.06;5008218;28;20057;-72
2022/12/31 00:41:36;;;;;;;1.33;1.20;;;;;;;12.64;100.00;100204.91;5007557;28;20512;-73
2022/12/31 00:44:05;;;;;;;1.65;1.30;;;;;;;12.65;100.00;100212.78;5009584;28;20042;-72
2022/12/31 00:46:32;;;;;;;2.33;1.38;;;;;;;12.66;100.00;100213.63;5010457;28;20070;-72
2022/12/31 00:48:59;;;;;;;1.60;1.00;;;;;;;12.67;100.00;100210.03;5008187;28;20046;-75
2022/12/31 00:51:26;;;;;;;2.42;1.23;;;;;;;12.69;100.00;100202.91;5008449;28;20069;-75
2022/12/31 00:54:00;;;;;;;2.40;1.30;;;;;;;12.69;100.00;100200.25;5009187;28;20524;-76
2022/12/31 00:56:30;;;;;;;1.42;1.20;;;;;;;12.67;100.00;100202.97;4998448;28;20043;-74
2022/12/31 00:58:58;;;;;;;2.65;1.40;;;;;;;12.67;100.00;100202.97;5009550;28;20068;-75
2022/12/31 01:01:35;;;;;;;1.55;1.13;;;;;;;12.68;100.00;100203.84;5008179;28;20122;-75
2022/12/31 01:04:13;;;;;;;2.95;1.50;;;;;;;12.68;100.00;100198.53;4992533;28;20553;-75
2022/12/31 01:06:42;;;;;;;4.13;1.42;;;;;;;12.67;100.00;100194.19;5004757;28;20054;-75
2022/12/31 01:09:11;;;;;;;2.58;1.35;;;;;;;12.67;100.00;100208.25;5009245;28;20046;-74
2022/12/31 01:11:40;;;;;;;2.10;1.40;;;;;;;12.64;100.00;100203.13;5007923;28;20772;-73
2022/12/31 01:14:11;;;;;;;1.92;1.50;;;;;;;12.63;100.00;100209.34;5008748;28;20110;-73
2022/12/31 01:16:50;;;;;;;2.25;1.58;;;;;;;12.61;100.00;100216.50;5008117;28;20037;-71
2022/12/31 01:19:25;;;;;;;2.70;1.60;;;;;;;12.58;100.00;100217.50;5005485;28;20042;-72
2022/12/31 01:21:55;;;;;;;2.00;1.73;;;;;;;12.58;100.00;100213.97;5007893;28;20046;-73
2022/12/31 01:24:22;;;;;;;2.03;1.45;;;;;;;12.58;100.00;100203.41;5009189;28;20054;-73
2022/12/31 01:26:50;;;;;;;1.92;1.08;;;;;;;12.56;100.00;100182.34;5008894;28;20053;-72
2022/12/31 01:29:18;;;;;;;1.55;1.08;;;;;;;12.55;100.00;100201.78;5010002;28;20054;-73
2022/12/31 01:31:45;;;;;;;1.88;0.68;;;;;;;12.57;100.00;100218.44;5005238;28;20134;-75
2022/12/31 01:34:12;;;;;;;1.05;0.52;;;;;;;12.54;100.00;100205.34;4997294;28;20046;-75
2022/12/31 01:36:40;;;;;;;1.20;0.60;;;;;;;12.55;100.00;100199.13;4997868;28;20046;-76
2022/12/31 01:39:10;;;;;;;1.65;0.50;;;;;;;12.54;100.00;100186.00;4999492;28;20050;-76
2022/12/31 01:41:45;;;;;;;2.03;0.35;;;;;;;12.54;100.00;100186.00;5005947;28;20050;-76
2022/12/31 01:44:12;;;;;;;;;;;;;;;12.47;100.00;100184.56;5009967;28;20074;-75
2022/12/31 01:46:48;;;;;;;1.10;0.47;;;;;;;12.44;100.00;100188.22;5008996;28;20431;-75
2022/12/31 01:49:26;;;;;;;1.10;0.30;;;;;;;12.43;100.00;100200.59;5005193;28;20046;-75
2022/12/31 01:52:04;;;;;;;1.13;0.47;;;;;;;12.42;100.00;100205.94;5008082;28;20038;-75
2022/12/31 01:54:41;;;;;;;0.38;0.30;;;;;;;12.38;100.00;100202.59;5005653;28;20397;-75
2022/12/31 01:57:09;;;;;;;1.65;0.45;;;;;;;12.39;100.00;100208.75;5008615;28;20042;-75
2022/12/31 01:59:37;;;;;;;0.38;0.30;;;;;;;12.39;100.00;100203.47;5009028;28;20077;-75
2022/12/31 02:02:05;;;;;;;0.25;0.25;;;;;;;12.37;100.00;100206.16;5010437;28;20064;-74
2022/12/31 02:04:32;;;;;;;2.90;0.50;;;;;;;12.38;100.00;100204.38;5002825;28;20264;-73
2022/12/31 02:07:06;;;;;;;1.65;0.30;;;;;;;12.40;100.00;100213.94;5002242;28;20046;-74
2022/12/31 02:09:40;;;;;;;1.05;0.52;;;;;;;12.42;100.00;100208.59;5004058;28;20077;-73
2022/12/31 02:12:09;;;;;;;0.68;0.40;;;;;;;12.42;100.00;100221.81;5009573;28;20054;-72
2022/12/31 02:14:46;;;;;;;0.60;0.22;;;;;;;12.41;100.00;100231.53;5011755;28;20054;-73
2022/12/31 02:17:51;;;;;;;0.65;0.50;;;;;;;12.42;100.00;100257.03;5012364;28;20039;-73
2022/12/31 02:21:03;;;;;;;0.77;0.32;;;;;;;12.40;100.00;100277.41;5001009;28;20112;-73
2022/12/31 02:24:12;;;;;;;1.92;0.35;;;;;;;12.38;100.00;100278.41;4997902;28;20118;-74
2022/12/31 02:26:56;;;;;;;1.25;0.32;;;;;;;12.36;100.00;100251.19;5011224;28;20047;-72
2022/12/31 02:30:23;;;;;;;0.30;0.20;;;;;;;12.32;100.00;100223.16;5007758;28;20035;-72
2022/12/31 02:33:11;;;;;;;1.48;0.40;;;;;;;12.28;100.00;100225.09;5014301;28;20762;-73
2022/12/31 02:35:56;;;;;;;0.20;0.20;;;;;;;12.24;100.00;100232.31;5001987;28;20046;-73
2022/12/31 02:38:35;;;;;;;0.70;0.38;;;;;;;12.24;100.00;100232.31;5005971;28;20448;-72
2022/12/31 02:41:03;;;;;;;0.47;0.30;;;;;;;12.24;100.00;100229.69;5010560;28;20072;-72
2022/12/31 02:43:30;;;;;;;0.65;0.30;;;;;;;12.19;100.00;100229.06;5011261;28;20049;-72
2022/12/31 02:46:40;;;;;;;0.30;0.30;;;;;;;12.19;100.00;100251.97;5010495;28;20831;-72
2022/12/31 02:49:59;;;;;;;0.52;0.50;;;;;;;12.16;100.00;100260.06;5011406;28;20129;-73
2022/12/31 02:52:35;;;;;;;0.47;0.47;;;;;;;12.14;100.00;100257.47;5008382;28;21339;-75
2022/12/31 02:55:17;;;;;;;0.93;0.50;;;;;;;12.15;100.00;100255.69;5006652;28;20042;-72
2022/12/31 02:58:05;;;;;;;0.70;0.55;;;;;;;12.14;100.00;100246.88;5010463;28;20559;-73
2022/12/31 03:03:30;;;;;;;0.60;0.60;;;;;;;12.14;100.00;100253.97;5011183;28;20070;-73
2022/12/31 03:06:03;;;;;;;0.70;0.70;;;;;;;12.15;100.00;100258.34;5006171;28;20046;-73
2022/12/31 03:08:30;;;;;;;0.70;0.60;;;;;;;12.13;100.00;100266.31;4999309;28;20133;-73
2022/12/31 03:10:57;;;;;;;1.27;0.68;;;;;;;12.14;100.00;100261.91;5006827;28;20049;-74
2022/12/31 03:13:25;;;;;;;2.72;0.75;;;;;;;12.14;100.00;100270.66;5010156;28;20058;-72
2022/12/31 03:15:52;;;;;;;2.55;0.95;;;;;;;12.15;100.00;100253.91;5011143;28;20555;-72
2022/12/31 03:22:26;;;;;;;2.30;1.00;;;;;;;12.16;100.00;100254.78;5010655;28;20046;-72
2022/12/31 03:26:44;;;;;;;1.48;0.70;;;;;;;12.20;100.00;100241.34;5003190;28;20051;-73
2022/12/31 03:29:11;;;;;;;2.55;0.77;;;;;;;12.21;100.00;100242.19;5012421;28;20531;-73
2022/12/31 03:31:38;;;;;;;2.80;0.90;;;;;;;12.23;100.00;100235.06;5003663;28;20042;-73
2022/12/31 03:34:06;;;;;;;1.30;0.90;;;;;;;12.23;100.00;100227.97;5005992;28;20102;-73
2022/12/31 03:36:33;;;;;;;0.90;0.80;;;;;;;12.23;100.00;100233.25;5010354;28;20110;-74
2022/12/31 03:39:00;;;;;;;1.88;0.90;;;;;;;12.24;100.00;100231.47;5005337;28;20135;-74
2022/12/31 03:41:27;;;;;;;1.45;0.90;;;;;;;12.24;100.00;100227.03;5010814;28;20593;-72
2022/12/31 03:43:54;;;;;;;1.23;0.98;;;;;;;12.24;100.00;100231.47;5011329;28;20069;-72
2022/12/31 03:46:21;;;;;;;1.70;1.00;;;;;;;12.25;100.00;100219.97;5010941;28;20050;-71
2022/12/31 03:48:48;;;;;;;1.20;0.98;;;;;;;12.25;100.00;100209.41;5009271;28;20046;-72
2022/12/31 03:51:16;;;;;;;2.63;1.08;;;;;;;12.25;100.00;100215.53;5000272;28;20046;-75
2022/12/31 03:53:43;;;;;;;1.20;1.10;;;;;;;12.24;100.00;100208.53;5010742;28;20954;-74
2022/12/31 03:56:10;;;;;;;1.10;1.00;;;;;;;12.25;100.00;100212.06;4999491;28;20432;-74
2022/12/31 03:58:38;;;;;;;1.00;0.90;;;;;;;12.25;100.00;100218.19;5011577;28;20393;-75
2022/12/31 04:01:05;;;;;;;1.10;1.00;;;;;;;12.25;100.00;100198.84;5010233;28;20077;-73
2022/12/31 04:03:32;;;;;;;1.15;1.05;;;;;;;12.25;100.00;100199.69;5009353;28;20113;-73
2022/12/31 04:05:59;;;;;;;1.20;1.10;;;;;;;12.26;100.00;100198.75;5010983;28;20042;-72
2022/12/31 04:08:26;;;;;;;1.00;1.00;;;;;;;12.26;100.00;100197.88;5010608;28;20570;-71
2022/12/31 04:10:53;;;;;;;1.20;1.10;;;;;;;12.27;100.00;100200.47;5009404;28;20073;-71
2022/12/31 04:13:22;;;;;;;1.15;1.05;;;;;;;12.28;100.00;100190.75;5000711;28;20054;-71
2022/12/31 04:15:50;;;;;;;1.23;1.13;;;;;;;12.28;100.00;100188.09;4994678;28;20980;-71
2022/12/31 04:18:17;;;;;;;4.68;1.10;;;;;;;12.29;100.00;100191.63;5011180;28;20681;-71
2022/12/31 04:20:48;;;;;;;1.20;1.05;;;;;;;12.29;100.00;100183.69;5011103;28;20034;-71
2022/12/31 04:23:16;;;;;;;3.25;1.30;;;;;;;12.29;100.00;100188.97;5010179;28;20048;-71
2022/12/31 04:25:43;;;;;;;1.30;1.20;;;;;;;12.28;100.00;100188.09;5010290;28;20043;-71
2022/12/31 04:28:10;;;;;;;1.58;1.00;;;;;;;12.29;100.00;100181.03;5010213;28;20076;-70
2022/12/31 04:30:39;;;;;;;1.95;0.90;;;;;;;12.29;100.00;100184.53;5002738;28;20053;-71
2022/12/31 04:33:06;;;;;;;0.80;0.80;;;;;;;12.29;100.00;100183.69;5009538;28;20046;-71
2022/12/31 04:35:33;;;;;;;0.85;0.80;;;;;;;12.29;100.00;100186.34;5010365;28;20101;-73
2022/12/31 04:38:00;;;;;;;0.70;0.70;;;;;;;12.29;100.00;100194.25;5010607;28;20456;-74
2022/12/31 04:40:27;;;;;;;1.30;0.88;;;;;;;12.30;100.00;100201.25;5008712;28;20035;-73
2022/12/31 04:42:54;;;;;;;1.00;0.80;;;;;;;12.30;100.00;100207.41;5009193;28;20049;-73
2022/12/31 04:45:21;;;;;;;1.05;0.90;;;;;;;12.33;100.00;100215.19;5010128;28;20042;-73
2022/12/31 04:47:48;;;;;;;1.80;1.10;;;;;;;12.30;100.00;100215.31;4993293;28;20051;-72
2022/12/31 04:50:15;;;;;;;2.88;1.27;;;;;;;12.26;100.00;100198.75;4997556;28;20685;-72
2022/12/31 04:52:43;;;;;;;2.17;1.02;;;;;;;12.24;100.00;100205.91;5009428;28;20159;-71
2022/12/31 04:55:10;;;;;;;2.67;1.20;;;;;;;12.17;100.00;100215.06;5006810;28;20040;-71
2022/12/31 04:57:43;;;;;;;1.85;1.30;;;;;;;12.15;100.00;100202.84;5010497;28;20045;-71
2022/12/31 05:00:12;;;;;;;2.00;1.20;;;;;;;12.09;100.00;100215.41;5007376;28;20057;-72
2022/12/31 05:02:39;;;;;;;3.53;0.70;;;;;;;12.04;100.00;100211.25;4998829;28;20135;-70
2022/12/31 05:05:07;;;;;;;2.10;0.90;;;;;;;11.95;100.00;100225.75;5008811;28;20042;-71
2022/12/31 05:07:34;;;;;;;1.73;0.90;;;;;;;11.90;100.00;100204.81;5006646;28;20053;-71
2022/12/31 05:10:02;;;;;;;1.33;0.77;;;;;;;11.87;100.00;100209.34;5006924;28;20094;-70
2022/12/31 05:12:29;;;;;;;2.83;0.93;;;;;;;11.84;100.00;100206.88;4999590;28;20069;-70
2022/12/31 05:14:56;;;;;;;2.30;0.80;;;;;;;11.92;100.00;100228.50;4993795;28;20043;-70
2022/12/31 05:17:23;;;;;;;3.45;0.80;;;;;;;11.97;100.00;100226.50;5007102;28;20038;-69
2022/12/31 05:19:50;;;;;;;5.80;1.20;;;;;;;11.94;100.00;100234.59;5002612;28;20050;-72
2022/12/31 05:22:30;;;;;;;2.85;0.90;;;;;;;11.89;100.00;100224.22;5009103;28;20046;-72
2022/12/31 05:24:58;;;;;;;2.75;0.80;;;;;;;11.90;100.00;100233.88;5008815;28;20038;-72
2022/12/31 05:27:29;;;;;;;1.17;0.70;;;;;;;11.89;100.00;100240.06;5009346;28;20126;-72
2022/12/31 05:29:58;;;;;;;1.50;0.90;;;;;;;11.87;100.00;100231.38;5009021;28;20082;-72
2022/12/31 05:32:25;;;;;;;1.45;0.90;;;;;;;11.89;100.00;100229.50;5008759;28;20047;-70
2022/12/31 05:34:52;;;;;;;2.90;1.20;;;;;;;11.94;100.00;100237.22;5008959;28;20037;-70
2022/12/31 05:37:22;;;;;;;2.13;1.10;;;;;;;12.02;100.00;100243.03;5007596;28;20055;-69
2022/12/31 05:39:49;;;;;;;2.88;0.80;;;;;;;12.15;100.00;100237.19;5006815;28;20035;-70
2022/12/31 05:42:16;;;;;;;3.13;0.82;;;;;;;12.27;100.00;100228.66;5005547;28;20045;-70
2022/12/31 05:44:43;;;;;;;4.57;0.80;;;;;;;12.38;100.00;100238.75;5009059;28;20145;-70
2022/12/31 05:47:11;;;;;;;1.70;0.70;;;;;;;12.48;100.00;100239.16;5009118;28;20057;-69
2022/12/31 05:49:38;;;;;;;4.72;0.70;;;;;;;12.56;100.00;100234.38;5006677;28;20097;-68
2022/12/31 05:52:05;;;;;;;2.55;0.80;;;;;;;12.61;100.00;100242.94;5008542;28;20859;-71
2022/12/31 05:54:35;;;;;;;3.65;0.90;;;;;;;12.69;100.00;100251.34;5008982;28;20046;-70
2022/12/31 05:57:03;;;;;;;7.78;2.20;;;;;;;12.71;100.00;100264.50;5000426;28;20054;-70
2022/12/31 05:59:30;;;;;;;4.95;0.90;;;;;;;12.70;100.00;100268.94;5008927;28;20034;-70
2022/12/31 06:01:59;;;;;;;4.30;1.25;;;;;;;12.70;100.00;100268.94;5008965;28;20164;-70
2022/12/31 06:04:26;;;;;;;3.15;1.23;;;;;;;12.66;100.00;100272.66;5023213;28;20050;-70
2022/12/31 06:06:54;;;;;;;3.78;1.00;;;;;;;12.65;100.00;100270.09;5004589;28;20122;-69
2022/12/31 06:09:21;;;;;;;3.13;0.50;;;;;;;12.69;100.00;100271.66;4998495;28;20121;-70
2022/12/31 06:11:49;;;;;;;2.83;0.65;;;;;;;12.77;100.00;100271.28;5007734;28;20516;-71
2022/12/31 06:14:16;;;;;;;5.55;0.80;;;;;;;12.82;100.00;100277.19;5008564;28;20098;-72
2022/12/31 06:16:43;;;;;;;1.70;0.50;;;;;;;12.87;100.00;100268.13;5006530;28;20035;-71
2022/12/31 06:19:12;;;;;;;2.17;0.60;;;;;;;12.94;100.00;100278.38;5007337;28;20150;-71
2022/12/31 06:21:39;;;;;;;2.97;0.70;;;;;;;12.98;100.00;100272.88;5008481;28;20121;-70
2022/12/31 06:24:07;;;;;;;3.67;0.80;;;;;;;13.01;100.00;100269.22;5008664;28;20456;-70
2022/12/31 06:26:34;;;;;;;4.60;0.70;;;;;;;13.02;100.00;100257.72;5008099;28;20042;-70
2022/12/31 06:29:01;;;;;;;1.88;0.60;;;;;;;13.03;100.00;100264.69;5007912;28;20547;-70
2022/12/31 06:31:28;;;;;;;2.85;0.55;;;;;;;13.05;100.00;100271.66;5004121;28;20053;-71
2022/12/31 06:33:55;;;;;;;2.40;0.55;;;;;;;13.07;100.00;100266.28;4990273;28;20676;-73
2022/12/31 06:36:24;;;;;;;3.42;0.70;;;;;;;13.08;100.00;100267.09;5001927;28;20039;-74
2022/12/31 06:38:51;;;;;;;3.53;0.60;;;;;;;13.09;100.00;100287.34;5002935;28;20038;-75
2022/12/31 06:41:18;;;;;;;2.22;0.50;;;;;;;13.13;100.00;100303.00;5004562;28;20045;-76
2022/12/31 06:43:45;;;;;;;1.83;1.10;;;;;;;13.16;100.00;100291.44;5005896;28;20050;-76
2022/12/31 06:46:16;;;;;;;2.38;1.58;;;;;;;13.12;100.00;100289.84;5015477;28;20053;-73
2022/12/31 06:48:44;;;;;;;2.22;1.20;;;;;;;13.05;100.00;100300.75;5010065;28;20101;-73
2022/12/31 06:51:17;;;;;;;1.88;1.50;;;;;;;12.99;100.00;100297.56;5010973;28;20857;-73
2022/12/31 06:53:46;;;;;;;3.42;1.60;;;;;;;12.94;100.00;100287.19;5010947;28;20049;-73
2022/12/31 06:56:27;;;;;;;2.47;1.30;;;;;;;12.94;100.00;100284.56;5022536;28;20043;-75
2022/12/31 06:59:03;;;;;;;2.83;1.15;;;;;;;12.94;100.00;100288.97;5002696;28;20039;-74
2022/12/31 07:02:00;;;;;;;3.67;1.10;;;;;;;12.94;100.00;100281.91;4999642;28;20443;-75
2022/12/31 07:04:43;;;;;;;5.72;0.70;;;;;;;12.95;100.00;100275.69;4979258;28;20063;-74
2022/12/31 07:07:38;;;;;;;2.00;0.47;;;;;;;13.02;100.00;100279.72;5011153;28;20041;-75
2022/12/31 07:10:39;;;;;;;1.55;0.30;;;;;;;13.17;100.00;100274.63;5011836;28;20061;-74
2022/12/31 07:13:39;;;;;;;3.35;0.60;;;;;;;13.31;100.00;100279.22;5008543;28;20054;-74
2022/12/31 07:16:38;;;;;;;5.47;0.60;;;;;;;13.44;100.00;100277.66;5009681;28;20045;-75
2022/12/31 07:19:38;;;;;;;2.00;0.50;;;;;;;13.56;100.00;100280.63;5007176;28;20075;-72
2022/12/31 07:22:14;;;;;;;2.70;0.50;;;;;;;13.67;100.00;100270.31;5004616;28;20114;-77
2022/12/31 07:24:43;;;;;;;3.85;0.50;;;;;;;13.76;100.00;100269.84;5006639;28;20126;-77
2022/12/31 07:27:41;;;;;;;5.80;0.70;;;;;;;13.80;100.00;100276.69;5006992;28;20050;-76
2022/12/31 07:30:19;;;;;;;2.00;0.40;;;;;;;13.89;100.00;100278.00;5019872;28;20054;-76
2022/12/31 07:33:29;;;;;;;3.33;0.57;;;;;;;13.98;100.00;100264.28;5005253;28;20053;-75
2022/12/31 07:36:27;;;;;;;2.60;0.55;;;;;;;14.06;100.00;100276.25;5008548;28;20038;-75
2022/12/31 07:39:23;;;;;;;3.42;0.40;;;;;;;14.12;100.00;100263.53;5003188;28;20050;-74
2022/12/31 07:41:56;;;;;;;2.63;0.70;;;;;;;14.23;100.00;100268.22;5001659;28;20042;-74
2022/12/31 07:44:59;;;;;;;3.15;0.50;;;;;;;14.29;100.00;100269.69;5009929;28;20085;-76
2022/12/31 07:47:28;;;;;;;3.80;0.95;;;;;;;14.33;100.00;100268.59;5007397;28;20049;-73
2022/12/31 07:49:56;;;;;;;1.63;0.35;;;;;;;14.40;100.00;100279.69;5004156;28;20101;-69
2022/12/31 07:52:24;;;;;;;2.08;0.55;;;;;;;14.45;100.00;100286.44;5004694;28;20049;-70
2022/12/31 07:54:57;;;;;;;2.33;0.50;;;;;;;14.50;100.00;100291.50;5008193;28;20045;-70
2022/12/31 07:57:37;;;;;;;3.25;0.50;;;;;;;14.55;100.00;100286.81;5008411;28;20050;-70
2022/12/31 08:00:08;;;;;;;2.55;0.70;;;;;;;14.60;99.95;100299.81;5006770;28;20532;-70
2022/12/31 08:02:55;;;;;;;2.97;0.45;;;;;;;14.63;99.67;100293.47;5018531;28;20042;-69
2022/12/31 08:05:33;;;;;;;2.67;0.60;;;;;;;14.66;100.00;100291.50;5007438;28;20042;-70
2022/12/31 08:08:27;;;;;;;2.63;0.73;;;;;;;14.68;99.86;100302.06;5005825;28;20051;-70
2022/12/31 08:11:40;;;;;;;3.33;0.70;;;;;;;14.71;99.65;100301.88;5012795;28;20045;-70
2022/12/31 08:14:12;;;;;;;3.22;0.50;;;;;;;14.67;100.00;100295.91;5005950;28;20058;-70
2022/12/31 08:16:40;;;;;;;1.45;0.50;;;;;;;14.65;100.00;100296.91;5010212;28;20046;-70
2022/12/31 08:19:24;;;;;;;4.20;0.60;;;;;;;14.64;100.00;100298.72;5009818;28;20125;-70
2022/12/31 08:22:38;;;;;;;2.60;0.50;;;;;;;14.63;100.00;100299.66;5009394;28;20133;-70
2022/12/31 08:25:37;;;;;;;4.20;0.70;;;;;;;14.64;100.00;100285.44;5009747;28;20042;-70
2022/12/31 08:28:35;;;;;;;3.13;0.60;;;;;;;14.65;100.00;100299.56;5002662;28;20043;-71
2022/12/31 08:31:13;;;;;;;3.05;0.60;;;;;;;14.65;100.00;100303.03;5007546;28;20046;-70
2022/12/31 08:34:05;;;;;;;3.17;0.70;;;;;;;14.67;100.00;100311.81;5003122;28;20046;-69
2022/12/31 08:36:47;;;;;;;5.28;0.70;;;;;;;14.65;100.00;100334.03;5005747;28;20039;-70
2022/12/31 08:40:02;;;;;;;4.35;0.60;;;;;;;14.66;100.00;100333.94;5008548;28;20058;-71
2022/12/31 08:43:06;;;;;;;1.80;0.50;;;;;;;14.67;100.00;100353.41;5006092;28;20057;-73
2022/12/31 08:46:09;;;;;;;5.10;0.40;;;;;;;14.73;98.78;100359.25;5008044;28;20666;-70
2022/12/31 08:48:42;;;;;;;2.13;0.63;;;;;;;14.75;97.71;100373.25;5010595;28;20559;-71
2022/12/31 08:51:18;;;;;;;2.20;0.60;;;;;;;14.81;97.59;100395.09;5006468;28;20076;-71
2022/12/31 08:53:47;;;;;;;1.08;0.43;;;;;;;14.85;95.71;100392.19;5004364;28;20072;-71
2022/12/31 08:56:48;;;;;;;2.08;0.52;;;;;;;14.90;94.86;100399.91;5006631;28;20054;-70
2022/12/31 08:59:42;;;;;;;5.05;0.50;;;;;;;14.96;95.01;100404.00;5007369;28;20042;-72
2022/12/31 09:02:09;;;;;;;1.30;0.40;;;;;;;15.01;94.91;100418.75;5005968;28;20201;-74
2022/12/31 09:05:10;;;;;;;2.88;0.40;;;;;;;15.06;94.61;100432.59;5005241;28;20039;-71
2022/12/31 09:07:55;;;;;;;5.03;0.75;;;;;;;15.10;93.73;100448.38;5004407;28;20121;-71
2022/12/31 09:10:49;;;;;;;3.05;0.75;;;;;;;15.08;93.87;100435.19;5004652;28;20045;-72
2022/12/31 09:13:40;;;;;;;2.63;0.43;;;;;;;15.01;94.66;100447.94;5006548;28;20125;-71
2022/12/31 09:16:32;;;;;;;1.67;0.47;;;;;;;15.02;94.76;100465.59;5005822;28;20038;-71
2022/12/31 09:18:59;;;;;;;2.35;0.43;;;;;;;15.02;94.39;100478.84;5006141;28;20045;-71
2022/12/31 09:21:27;;;;;;;3.83;0.70;;;;;;;15.06;93.83;100474.22;5002917;28;20050;-73
2022/12/31 09:23:54;;;;;;;3.95;0.60;;;;;;;15.08;94.61;100477.66;5006408;28;20512;-73
2022/12/31 09:26:46;;;;;;;2.55;0.50;;;;;;;15.16;93.82;100491.38;5009276;28;20046;-73
2022/12/31 09:29:34;;;;;;;2.22;1.20;;;;;;;15.19;93.29;100490.34;5008917;28;20054;-74
2022/12/31 09:32:38;;;;;;;45.10;38.85;;;;;;;15.23;93.78;100497.19;5005672;28;20050;-74
2022/12/31 09:35:45;;;;;;;14.02;12.65;;;;;;;15.24;92.07;100490.94;5001969;28;20054;-74
2022/12/31 09:38:31;;;;;;;11.73;9.73;;;;;;;15.23;92.97;100499.84;5006919;28;20118;-74
2022/12/31 09:41:48;;;;;;;5.25;1.92;;;;;;;15.19;93.68;100503.59;5005350;28;20038;-73
2022/12/31 09:45:10;;;;;;;3.00;0.77;;;;;;;15.18;92.82;100528.44;5004755;28;20052;-74
2022/12/31 09:48:34;;;;;;;3.30;1.23;;;;;;;15.05;94.40;100521.16;5004740;28;20526;-72
2022/12/31 09:51:41;;;;;;;2.08;0.85;;;;;;;14.86;95.71;100539.00;5006103;28;20046;-71
2022/12/31 09:54:38;;;;;;;3.90;0.70;;;;;;;14.71;97.06;100544.19;5007925;28;20194;-71
2022/12/31 09:57:41;;;;;;;3.00;1.20;;;;;;;14.64;98.29;100533.94;5004342;28;20038;-70
2022/12/31 10:00:39;;;;;;;3.38;1.10;;;;;;;14.59;98.94;100526.22;5003463;28;20544;-70
2022/12/31 10:03:39;;;;;;;9.32;6.60;;;;;;;14.60;99.92;100523.47;5003493;28;20038;-71
2022/12/31 10:07:03;;;;;;;3.42;2.05;;;;;;;14.64;100.00;100537.47;5004376;28;20046;-71
2022/12/31 10:10:06;;;;;;;4.55;2.55;;;;;;;14.65;100.00;100540.97;5006734;28;20142;-74
2022/12/31 10:12:45;;;;;;;3.63;0.95;;;;;;;14.73;100.00;100531.69;5001738;28;20058;-73
2022/12/31 10:15:42;;;;;;;7.65;6.75;;;;;;;14.79;100.00;100527.88;5009221;28;20039;-75
2022/12/31 10:18:26;;;;;;;7.13;5.25;;;;;;;14.85;100.00;100526.69;5007933;28;20042;-75
2022/12/31 10:21:28;;;;;;;2.45;1.60;;;;;;;14.92;99.62;100530.72;5009270;28;20042;-75
2022/12/31 10:24:11;;;;;;;4.15;1.15;;;;;;;15.00;98.95;100519.69;5011282;28;20042;-73
2022/12/31 10:27:17;;;;;;;3.25;0.90;;;;;;;15.07;97.27;100531.69;5009426;28;20039;-74
2022/12/31 10:30:02;;;;;;;5.35;1.17;;;;;;;15.11;97.15;100527.91;5010644;28;20050;-71
2022/12/31 10:32:49;;;;;;;5.07;2.60;;;;;;;15.18;97.29;100531.97;5008138;28;20081;-72
2022/12/31 10:35:42;;;;;;;7.10;4.38;;;;;;;15.25;96.26;100524.53;5009762;28;20102;-72
2022/12/31 10:38:46;;;;;;;3.58;2.72;;;;;;;15.35;94.96;100511.59;5010697;28;20113;-72
2022/12/31 10:41:41;;;;;;;4.38;1.50;;;;;;;15.43;95.71;100514.66;5010031;28;20041;-72
2022/12/31 10:44:49;;;;;;;4.15;0.80;;;;;;;15.57;94.00;100511.22;5009189;28;20051;-73
2022/12/31 10:47:43;;;;;;;3.70;1.17;;;;;;;15.65;94.11;100505.50;5010113;28;20042;-74
2022/12/31 10:50:24;;;;;;;7.57;1.10;;;;;;;15.68;93.39;100498.19;5009662;28;20076;-73
2022/12/31 10:53:20;;;;;;;2.45;0.80;;;;;;;15.72;92.52;100485.59;5009708;28;20054;-74
2022/12/31 10:56:16;;;;;;;4.63;0.90;;;;;;;15.75;92.34;100503.19;5002192;28;20035;-72
2022/12/31 10:59:13;;;;;;;2.58;0.80;;;;;;;15.77;92.06;100502.13;5012099;28;20591;-73
2022/12/31 11:02:14;;;;;;;4.38;1.20;;;;;;;15.80;91.71;100514.38;5009722;28;20114;-75
2022/12/31 11:05:24;;;;;;;5.63;1.30;;;;;;;15.82;91.45;100523.97;5007521;28;20066;-74
2022/12/31 11:08:44;;;;;;;4.57;0.93;;;;;;;15.86;91.31;100521.19;5009533;28;20038;-74
2022/12/31 11:12:02;;;;;;;6.00;3.42;;;;;;;15.86;91.88;100524.72;5006071;28;20050;-73
2022/12/31 11:14:49;;;;;;;6.25;2.03;;;;;;;15.89;91.35;100518.34;5017907;28;20116;-74
2022/12/31 11:17:40;;;;;;;3.10;1.48;;;;;;;15.93;89.39;100526.06;4990563;28;20552;-73
2022/12/31 11:20:59;;;;;;;3.10;0.80;;;;;;;16.01;88.90;100528.28;5010864;28;20038;-74
2022/12/31 11:23:49;;;;;;;5.18;2.97;;;;;;;16.08;89.22;100529.63;5007858;28;20141;-74
2022/12/31 11:26:53;;;;;;;3.78;1.25;;;;;;;16.05;88.46;100524.47;5007531;28;20512;-73
2022/12/31 11:29:48;;;;;;;5.05;4.00;;;;;;;16.09;88.74;100530.47;5006542;28;20049;-74
2022/12/31 11:32:34;;;;;;;5.30;2.10;;;;;;;16.15;87.97;100516.84;5008230;28;20766;-74
2022/12/31 11:35:14;;;;;;;1.90;0.75;;;;;;;16.21;86.55;100531.56;5005931;28;20449;-74
2022/12/31 11:37:59;;;;;;;4.63;0.82;;;;;;;16.23;86.25;100532.31;5006472;28;20120;-74
2022/12/31 11:41:08;;;;;;;3.40;0.80;;;;;;;16.26;86.81;100546.31;5010094;28;20030;-75
2022/12/31 11:43:48;;;;;;;3.75;0.90;;;;;;;16.29;85.95;100539.94;5008190;28;20038;-74
2022/12/31 11:46:37;;;;;;;3.28;0.70;;;;;;;16.35;84.52;100541.41;5006808;28;20046;-75
2022/12/31 11:49:39;;;;;;;3.47;1.00;;;;;;;16.37;85.61;100543.00;5008400;28;20081;-75
2022/12/31 11:52:30;;;;;;;4.15;0.88;;;;;;;16.37;85.83;100552.81;5004115;28;20558;-76
2022/12/31 11:55:20;;;;;;;3.10;1.08;;;;;;;16.34;86.16;100555.63;5007570;28;20039;-75
2022/12/31 11:57:50;;;;;;;3.28;0.90;;;;;;;16.28;85.28;100556.84;5007411;28;20039;-74
2022/12/31 12:00:24;;;;;;;3.92;0.70;;;;;;;16.28;83.70;100547.06;5008641;28;20607;-76
2022/12/31 12:03:04;;;;;;;5.30;0.93;;;;;;;16.28;83.47;100548.88;5015378;28;20081;-77
2022/12/31 12:05:34;;;;;;;44.78;21.20;;;;;;;16.27;83.35;100547.16;5009636;28;20109;-77
2022/12/31 12:08:02;;;;;;;8.88;2.60;;;;;;;16.26;84.11;100556.09;5007414;28;20072;-75
2022/12/31 12:10:40;;;;;;;3.53;0.80;;;;;;;16.27;83.10;100547.16;5006392;28;20074;-73
2022/12/31 12:13:21;;;;;;;5.43;1.38;;;;;;;16.28;82.95;100555.03;5005235;28;20065;-75
2022/12/31 12:15:58;;;;;;;4.25;1.10;;;;;;;16.28;82.70;100543.56;5010424;28;20875;-75
2022/12/31 12:19:01;;;;;;;4.03;1.15;;;;;;;16.23;83.66;100542.97;5010081;28;20038;-75
2022/12/31 12:21:29;;;;;;;7.75;1.30;;;;;;;16.21;83.18;100548.38;5009959;28;20496;-77
2022/12/31 12:23:57;;;;;;;7.47;1.20;;;;;;;16.17;83.84;100552.19;5010357;28;20076;-75